Time;durP1;ratioP1;P1;durP2;ratioP2;P2;SDS_P1;SDS_P2;PMS_P1;PMS_P2;Temp;Humidity;BMP_temperature;BMP_pressure;BME280_temperature;BME280_humidity;BME280_pressure;Samples;Min_cycle;Max_cycle;Signal;HPM_P1;HPM_P2
2023/08/09 00:01:34;;;;;;;1.40;0.60;;;;;;;20.30;53.96;99091.72;5073543;28;20211;-83
2023/08/09 00:04:00;;;;;;;2.00;1.00;;;;;;;20.37;53.54;99097.28;5073452;28;20205;-83
2023/08/09 00:06:26;;;;;;;1.37;0.80;;;;;;;20.36;53.97;99103.63;5072716;28;20180;-83
2023/08/09 00:08:51;;;;;;;1.50;0.80;;;;;;;20.32;54.21;99099.53;5072501;28;20272;-83
2023/08/09 00:11:16;;;;;;;1.73;0.87;;;;;;;20.21;54.65;99098.69;5073334;28;20173;-83
2023/08/09 00:13:42;;;;;;;1.97;0.80;;;;;;;20.17;54.89;99097.31;5080315;28;20759;-83
2023/08/09 00:16:08;;;;;;;1.43;0.97;;;;;;;20.21;54.81;99104.00;5093890;28;20661;-83
2023/08/09 00:18:34;;;;;;;1.53;0.80;;;;;;;20.16;54.94;99095.63;5093633;28;20207;-83
2023/08/09 00:21:00;;;;;;;1.90;0.80;;;;;;;20.13;55.12;99090.56;5093503;28;20613;-83
2023/08/09 00:23:26;;;;;;;1.97;0.80;;;;;;;20.14;54.56;99089.59;5093404;28;20252;-83
2023/08/09 00:25:52;;;;;;;2.13;0.63;;;;;;;20.05;54.81;99098.44;5089536;28;20237;-83
2023/08/09 00:28:17;;;;;;;1.27;0.73;;;;;;;20.03;54.92;99104.88;5072158;28;20189;-83
2023/08/09 00:30:43;;;;;;;2.00;0.90;;;;;;;20.08;54.75;99105.28;5073164;28;20189;-83
2023/08/09 00:33:09;;;;;;;1.87;0.90;;;;;;;19.98;54.70;99102.63;5072206;28;20724;-83
2023/08/09 00:35:35;;;;;;;2.57;1.10;;;;;;;20.00;54.72;99099.81;5073095;28;20173;-83
2023/08/09 00:38:00;;;;;;;1.30;0.90;;;;;;;20.05;54.97;99106.41;5073062;28;20688;-83
2023/08/09 00:40:27;;;;;;;1.47;0.87;;;;;;;20.08;54.59;99106.13;5072968;28;20214;-83
2023/08/09 00:42:52;;;;;;;1.67;0.97;;;;;;;20.09;54.60;99101.66;5073345;28;20201;-83
2023/08/09 00:45:18;;;;;;;2.67;0.73;;;;;;;20.15;54.65;99104.56;5073167;28;20255;-83
2023/08/09 00:47:43;;;;;;;3.40;1.00;;;;;;;20.21;54.48;99119.13;5072996;28;20187;-83
2023/08/09 00:50:09;;;;;;;1.70;0.97;;;;;;;20.27;54.00;99123.09;5073137;28;20191;-83
2023/08/09 00:52:36;;;;;;;1.47;0.80;;;;;;;20.20;54.09;99118.28;5072862;28;20173;-83
2023/08/09 00:55:03;;;;;;;1.80;0.90;;;;;;;20.25;53.83;99119.75;5072983;28;20169;-83
2023/08/09 00:57:30;;;;;;;2.27;1.00;;;;;;;20.33;53.89;99119.88;5072926;28;20192;-83
2023/08/09 00:59:55;;;;;;;1.70;0.93;;;;;;;20.29;53.63;99111.31;5071943;28;20213;-83
2023/08/09 01:02:21;;;;;;;1.63;1.03;;;;;;;20.22;53.67;99112.84;5072786;28;20216;-83
2023/08/09 01:04:47;;;;;;;3.10;0.97;;;;;;;20.02;54.58;99114.66;5073622;28;20284;-83
2023/08/09 01:07:21;;;;;;;1.40;0.80;;;;;;;19.96;54.84;99115.25;5092884;28;20217;-83
2023/08/09 01:09:53;;;;;;;0.97;0.47;;;;;;;19.97;54.93;99116.06;5093613;28;20515;-83
2023/08/09 01:12:29;;;;;;;1.27;0.70;;;;;;;20.01;54.81;99109.50;5091837;28;20196;-83
2023/08/09 01:15:00;;;;;;;3.33;1.10;;;;;;;20.05;54.85;99110.88;5092929;28;20172;-83
2023/08/09 01:17:27;;;;;;;2.80;0.80;;;;;;;20.10;54.89;99111.28;5095243;28;20160;-83
2023/08/09 01:19:55;;;;;;;1.50;0.80;;;;;;;20.13;54.88;99111.03;5096802;28;20180;-83
2023/08/09 01:22:25;;;;;;;2.30;1.17;;;;;;;20.10;54.84;99108.63;5096711;28;20259;-83
2023/08/09 01:24:51;;;;;;;2.10;1.20;;;;;;;20.00;54.87;99110.47;5096927;28;20230;-83
2023/08/09 01:27:17;;;;;;;1.30;0.83;;;;;;;19.95;55.21;99108.22;5096679;28;20207;-83
2023/08/09 01:29:43;;;;;;;2.17;0.97;;;;;;;19.93;55.11;99104.88;5095610;28;20176;-83
2023/08/09 01:32:08;;;;;;;1.03;0.70;;;;;;;19.88;55.41;99112.44;5096742;28;20211;-83
2023/08/09 01:34:36;;;;;;;1.77;0.90;;;;;;;19.84;55.71;99112.84;5096461;28;20612;-83
2023/08/09 01:37:35;;;;;;;1.67;1.00;;;;;;;19.82;55.68;99112.16;5095397;28;20184;-83
2023/08/09 01:40:08;;;;;;;2.30;1.07;;;;;;;19.83;55.45;99112.03;5096536;28;20169;-83
2023/08/09 01:42:35;;;;;;;2.30;1.10;;;;;;;19.84;54.87;99120.81;5096354;28;20576;-83
2023/08/09 01:45:02;;;;;;;1.70;0.87;;;;;;;19.86;54.10;99111.75;5096079;28;20224;-83
2023/08/09 01:47:29;;;;;;;1.30;0.93;;;;;;;19.88;54.23;99111.59;5095365;28;20208;-83
2023/08/09 01:49:54;;;;;;;1.40;0.87;;;;;;;19.86;54.12;99109.09;5096438;28;20172;-83
2023/08/09 01:52:19;;;;;;;1.80;1.10;;;;;;;19.76;54.16;99105.56;5096142;28;20176;-83
2023/08/09 01:54:45;;;;;;;1.70;0.80;;;;;;;19.71;54.24;99107.78;5095318;28;20175;-83
2023/08/09 01:57:11;;;;;;;2.03;0.97;;;;;;;19.65;54.75;99118.16;5096386;28;20609;-83
2023/08/09 01:59:37;;;;;;;1.63;0.80;;;;;;;19.59;54.89;99115.06;5095176;28;20191;-83
2023/08/09 02:02:03;;;;;;;2.20;1.13;;;;;;;19.60;54.69;99121.25;5096080;28;20177;-83
2023/08/09 02:04:29;;;;;;;2.17;1.00;;;;;;;19.57;54.86;99124.16;5095821;28;20342;-83
2023/08/09 02:06:54;;;;;;;2.03;0.80;;;;;;;19.53;54.94;99123.59;5095997;28;20640;-83
2023/08/09 02:09:20;;;;;;;1.97;0.80;;;;;;;19.51;54.92;99122.06;5095956;28;20173;-82
2023/08/09 02:11:46;;;;;;;2.30;1.10;;;;;;;19.45;55.28;99122.59;5094833;28;20645;-83
2023/08/09 02:14:12;;;;;;;1.60;1.03;;;;;;;19.38;55.84;99127.63;5095849;28;20251;-83
2023/08/09 02:16:38;;;;;;;3.23;1.17;;;;;;;19.36;55.87;99126.03;5094634;28;20188;-83
2023/08/09 02:19:04;;;;;;;2.63;1.10;;;;;;;19.27;56.00;99126.84;5078608;28;20177;-83
2023/08/09 02:21:29;;;;;;;1.97;0.93;;;;;;;19.29;55.90;99135.53;5075449;28;20184;-83
2023/08/09 02:23:55;;;;;;;1.87;1.00;;;;;;;19.18;56.81;99140.97;5075634;28;20197;-83
2023/08/09 02:26:21;;;;;;;5.23;1.00;;;;;;;19.09;57.15;99137.28;5075264;28;20272;-83
2023/08/09 02:28:48;;;;;;;2.77;1.40;;;;;;;19.12;56.78;99141.50;5091434;28;20183;-83
2023/08/09 02:31:14;;;;;;;2.33;0.90;;;;;;;19.12;56.83;99144.16;5095694;28;20214;-83
2023/08/09 02:33:39;;;;;;;2.33;1.37;;;;;;;19.08;57.25;99142.75;5095610;28;20168;-83
2023/08/09 02:36:05;;;;;;;4.07;1.50;;;;;;;19.02;57.13;99144.94;5095460;28;20176;-83
2023/08/09 02:38:34;;;;;;;1.83;1.20;;;;;;;19.01;57.09;99147.72;5095158;28;20239;-83
2023/08/09 02:41:00;;;;;;;2.53;1.30;;;;;;;19.01;56.87;99148.59;5095317;28;20191;-83
2023/08/09 02:43:26;;;;;;;2.77;1.47;;;;;;;19.02;56.87;99150.25;5094974;28;20172;-83
2023/08/09 02:45:53;;;;;;;3.93;1.43;;;;;;;18.96;56.95;99155.25;5095270;28;20172;-83
2023/08/09 02:48:19;;;;;;;3.93;1.50;;;;;;;18.89;57.50;99154.13;5094135;28;20688;-83
2023/08/09 02:50:45;;;;;;;4.03;1.50;;;;;;;18.90;57.49;99159.28;5095151;28;20187;-83
2023/08/09 02:53:11;;;;;;;4.97;1.60;;;;;;;18.91;57.47;99157.47;5095491;28;20172;-83
2023/08/09 02:55:37;;;;;;;4.80;1.93;;;;;;;18.93;57.21;99158.19;5095165;28;20221;-83
2023/08/09 02:58:04;;;;;;;4.07;1.30;;;;;;;18.95;57.09;99158.88;5095007;28;20180;-83
2023/08/09 03:00:31;;;;;;;3.53;1.30;;;;;;;18.90;57.21;99161.94;5094792;28;20189;-83
2023/08/09 03:02:56;;;;;;;4.60;1.40;;;;;;;18.87;57.20;99169.31;5095359;28;20214;-82
2023/08/09 03:05:22;;;;;;;2.53;1.33;;;;;;;18.82;57.32;99168.88;5094732;28;20196;-83
2023/08/09 03:07:47;;;;;;;2.43;1.50;;;;;;;18.82;57.39;99168.88;5094803;28;20184;-83
2023/08/09 03:10:12;;;;;;;2.20;1.23;;;;;;;18.73;57.61;99181.16;5094737;28;20297;-83
2023/08/09 03:12:38;;;;;;;2.43;1.23;;;;;;;18.66;57.74;99173.81;5094573;28;20271;-83
2023/08/09 03:15:05;;;;;;;2.30;1.20;;;;;;;18.67;57.55;99173.69;5094918;28;20279;-83
2023/08/09 03:17:31;;;;;;;2.80;1.20;;;;;;;18.69;57.63;99179.72;5092141;28;20602;-83
2023/08/09 03:19:57;;;;;;;3.30;1.33;;;;;;;18.68;57.41;99183.34;5087388;28;20569;-83
2023/08/09 03:22:23;;;;;;;2.03;1.20;;;;;;;18.67;57.64;99184.31;5084702;28;20645;-83
2023/08/09 03:24:48;;;;;;;3.53;1.20;;;;;;;18.59;57.78;99186.78;5085161;28;20586;-82
2023/08/09 03:27:14;;;;;;;3.57;1.40;;;;;;;18.53;57.65;99189.94;5073131;28;20197;-82
2023/08/09 03:29:39;;;;;;;2.70;1.17;;;;;;;18.40;58.27;99194.56;5074121;28;20177;-82
2023/08/09 03:32:05;;;;;;;6.07;1.73;;;;;;;18.43;58.10;99195.16;5074173;28;20169;-83
2023/08/09 03:34:30;;;;;;;3.07;1.17;;;;;;;18.48;57.88;99199.25;5073659;28;20181;-82
2023/08/09 03:36:55;;;;;;;3.77;1.50;;;;;;;18.54;57.44;99194.28;5090855;28;20260;-82
2023/08/09 03:39:21;;;;;;;4.83;1.40;;;;;;;18.56;57.80;99195.00;5094218;28;20172;-82
2023/08/09 03:41:47;;;;;;;4.70;1.63;;;;;;;18.52;57.39;99198.91;5089703;28;20637;-83
2023/08/09 03:44:13;;;;;;;4.87;1.53;;;;;;;18.53;57.77;99205.88;5085531;28;20227;-83
2023/08/09 03:46:39;;;;;;;4.03;2.00;;;;;;;18.48;58.36;99202.75;5092792;28;20611;-83
2023/08/09 03:49:04;;;;;;;3.73;1.70;;;;;;;18.48;58.44;99212.53;5085248;28;20183;-83
2023/08/09 03:51:30;;;;;;;3.17;1.53;;;;;;;18.49;58.05;99211.56;5073611;28;20177;-83
2023/08/09 03:53:55;;;;;;;5.87;1.67;;;;;;;18.49;58.08;99214.22;5072637;28;20172;-83
2023/08/09 03:56:21;;;;;;;4.90;1.80;;;;;;;18.50;58.11;99208.78;5073582;28;20178;-83
2023/08/09 03:58:47;;;;;;;3.57;1.70;;;;;;;18.52;57.94;99209.50;5073857;28;20178;-83
2023/08/09 04:01:12;;;;;;;3.40;1.83;;;;;;;18.52;58.35;99220.13;5079166;28;20179;-83
2023/08/09 04:03:38;;;;;;;5.60;1.60;;;;;;;18.55;58.02;99219.03;5093939;28;20249;-83
2023/08/09 04:06:05;;;;;;;2.53;1.57;;;;;;;18.51;58.24;99215.78;5093617;28;20202;-83
2023/08/09 04:08:31;;;;;;;2.07;1.20;;;;;;;18.52;58.68;99219.28;5093468;28;20175;-83
2023/08/09 04:10:57;;;;;;;1.90;0.90;;;;;;;18.55;58.39;99225.19;5075861;28;20275;-83
2023/08/09 04:13:23;;;;;;;3.10;1.47;;;;;;;18.57;58.66;99225.06;5073438;28;20264;-83
2023/08/09 04:15:48;;;;;;;3.10;1.53;;;;;;;18.56;58.94;99226.00;5073369;28;20174;-83
2023/08/09 04:18:16;;;;;;;2.17;1.10;;;;;;;18.53;59.03;99227.09;5073403;28;20236;-83
2023/08/09 04:20:43;;;;;;;4.57;1.43;;;;;;;18.53;59.40;99232.41;5073147;28;20626;-83
2023/08/09 04:23:08;;;;;;;1.90;1.20;;;;;;;18.58;59.78;99235.53;5072646;28;20180;-83
2023/08/09 04:25:34;;;;;;;2.37;1.10;;;;;;;18.64;59.64;99235.03;5073077;28;20219;-83
2023/08/09 04:27:59;;;;;;;3.17;1.37;;;;;;;18.74;59.51;99235.94;5074946;28;20169;-83
2023/08/09 04:30:25;;;;;;;1.50;0.80;;;;;;;18.86;59.25;99245.53;5093295;28;20175;-83
2023/08/09 04:32:52;;;;;;;1.40;0.77;;;;;;;18.95;59.01;99235.91;5093427;28;20203;-83
2023/08/09 04:35:18;;;;;;;1.90;1.10;;;;;;;19.08;58.61;99235.75;5092392;28;20180;-83
2023/08/09 04:37:44;;;;;;;1.57;1.00;;;;;;;19.22;57.90;99235.38;5092664;28;20228;-83
2023/08/09 04:40:10;;;;;;;3.37;1.50;;;;;;;19.38;57.70;99233.09;5092214;28;20192;-83
2023/08/09 04:42:42;;;;;;;2.27;1.20;;;;;;;19.53;56.97;99237.06;5093166;28;20256;-83
2023/08/09 04:45:12;;;;;;;1.57;0.90;;;;;;;19.60;56.78;99236.41;5092216;28;20202;-83
2023/08/09 04:47:40;;;;;;;1.77;0.90;;;;;;;19.71;56.99;99238.13;5088388;28;20324;-83
2023/08/09 04:50:07;;;;;;;2.37;1.20;;;;;;;19.90;56.78;99230.19;5093180;28;20179;-83
2023/08/09 04:52:34;;;;;;;2.03;1.00;;;;;;;20.10;56.49;99229.25;5095516;28;20634;-82
2023/08/09 04:55:00;;;;;;;5.00;1.50;;;;;;;20.26;56.43;99239.38;5080741;28;20187;-83
2023/08/09 04:57:26;;;;;;;1.63;0.90;;;;;;;20.30;56.39;99231.97;5076946;28;20169;-83
2023/08/09 04:59:51;;;;;;;1.57;1.03;;;;;;;20.51;56.24;99230.00;5077020;28;20660;-83
2023/08/09 05:02:17;;;;;;;3.00;1.40;;;;;;;20.69;56.13;99222.97;5076969;28;20633;-83
2023/08/09 05:04:42;;;;;;;2.07;1.20;;;;;;;20.97;56.08;99230.06;5094439;28;20204;-83
2023/08/09 05:07:07;;;;;;;4.37;1.27;;;;;;;21.23;55.52;99241.81;5097183;28;20176;-83
2023/08/09 05:09:34;;;;;;;3.90;1.30;;;;;;;21.51;54.95;99245.38;5082917;28;20192;-83
2023/08/09 05:11:59;;;;;;;2.53;1.30;;;;;;;21.76;54.63;99244.69;5090707;28;20184;-83
2023/08/09 05:14:26;;;;;;;5.60;1.30;;;;;;;22.02;54.25;99239.50;5088231;28;20234;-83
2023/08/09 05:16:51;;;;;;;2.10;0.90;;;;;;;22.22;53.75;99241.06;5092226;28;20188;-83
2023/08/09 05:19:18;;;;;;;2.70;1.10;;;;;;;22.55;53.06;99243.06;5096843;28;20188;-83
2023/08/09 05:21:43;;;;;;;2.30;1.40;;;;;;;22.74;51.33;99241.25;5095905;28;20218;-84
2023/08/09 05:24:09;;;;;;;7.50;1.60;;;;;;;22.88;50.70;99243.34;5096739;28;20622;-83
2023/08/09 05:26:34;;;;;;;1.57;1.07;;;;;;;23.12;49.02;99238.16;5096588;28;20294;-84
2023/08/09 05:29:00;;;;;;;3.67;1.17;;;;;;;23.20;48.53;99238.22;5095650;28;20184;-83
2023/08/09 05:31:25;;;;;;;2.53;1.10;;;;;;;23.13;48.66;99243.38;5088738;28;20188;-83
2023/08/09 05:33:50;;;;;;;4.30;1.33;;;;;;;23.24;49.08;99234.25;5077727;28;20188;-84
2023/08/09 05:36:16;;;;;;;1.87;1.00;;;;;;;23.47;48.22;99240.75;5076299;28;20611;-84
2023/08/09 05:38:41;;;;;;;2.53;1.00;;;;;;;23.54;47.60;99236.44;5087168;28;20652;-84
2023/08/09 05:41:08;;;;;;;3.40;1.00;;;;;;;23.47;48.11;99243.44;5089674;28;20270;-84
2023/08/09 05:43:33;;;;;;;1.67;1.00;;;;;;;23.39;47.61;99253.25;5083671;28;20195;-83
2023/08/09 05:46:00;;;;;;;2.20;1.13;;;;;;;23.37;48.59;99250.75;5088780;28;20177;-83
2023/08/09 05:48:25;;;;;;;2.70;1.30;;;;;;;23.47;47.82;99254.13;5091089;28;20188;-83
2023/08/09 05:50:50;;;;;;;7.53;1.00;;;;;;;23.41;47.48;99251.25;5092319;28;20199;-83
2023/08/09 05:53:16;;;;;;;1.80;0.93;;;;;;;23.45;47.38;99257.97;5075831;28;20260;-84
2023/08/09 05:55:41;;;;;;;2.20;1.17;;;;;;;23.59;47.07;99255.53;5075956;28;20172;-84
2023/08/09 05:58:09;;;;;;;1.30;0.80;;;;;;;23.73;47.06;99259.44;5074590;28;20541;-84
2023/08/09 06:00:34;;;;;;;2.77;1.20;;;;;;;23.94;46.00;99259.03;5075731;28;20185;-84
2023/08/09 06:03:00;;;;;;;1.97;0.80;;;;;;;23.97;45.89;99264.06;5085111;28;20752;-84
2023/08/09 06:05:26;;;;;;;2.43;1.13;;;;;;;23.95;46.82;99260.72;5079387;28;20706;-85
2023/08/09 06:07:52;;;;;;;1.77;0.97;;;;;;;24.22;46.16;99257.78;5074481;28;20212;-85
2023/08/09 06:10:22;;;;;;;1.57;1.10;;;;;;;24.40;45.05;99262.00;5089251;28;20189;-85
2023/08/09 06:12:48;;;;;;;3.33;1.47;;;;;;;24.36;45.29;99254.47;5075827;28;20207;-85
2023/08/09 06:15:14;;;;;;;3.20;0.90;;;;;;;24.47;44.89;99262.22;5075396;28;20324;-85
2023/08/09 06:17:39;;;;;;;1.73;1.00;;;;;;;24.68;44.87;99249.16;5075291;28;20189;-85
2023/08/09 06:20:06;;;;;;;1.50;0.80;;;;;;;24.77;43.85;99252.66;5075158;28;20177;-84
2023/08/09 06:22:31;;;;;;;4.63;1.00;;;;;;;24.93;43.21;99260.72;5087542;28;20185;-85
2023/08/09 06:24:57;;;;;;;1.63;1.00;;;;;;;25.08;43.24;99261.72;5074171;28;20213;-84
2023/08/09 06:27:27;;;;;;;3.33;0.80;;;;;;;25.13;43.22;99255.88;5075010;28;20197;-86
2023/08/09 06:29:53;;;;;;;2.60;1.00;;;;;;;25.39;41.94;99259.97;5086187;28;20180;-85
2023/08/09 06:32:32;;;;;;;2.67;0.90;;;;;;;25.73;41.85;99264.31;5075353;28;20199;-87
2023/08/09 06:34:59;;;;;;;1.63;0.77;;;;;;;25.97;41.40;99262.31;5075008;28;20192;-86
2023/08/09 06:37:27;;;;;;;1.57;0.90;;;;;;;26.35;40.59;99262.50;5074951;28;20272;-92
2023/08/09 06:39:53;;;;;;;1.73;0.77;;;;;;;26.80;39.97;99251.78;5082902;28;20192;-84
2023/08/09 06:42:18;;;;;;;1.60;0.70;;;;;;;27.26;38.92;99250.66;5087737;28;20181;-83
2023/08/09 06:44:44;;;;;;;2.17;1.00;;;;;;;27.78;37.50;99247.91;5073435;28;20215;-85
2023/08/09 06:47:11;;;;;;;2.93;1.07;;;;;;;28.14;38.15;99242.59;5076688;28;20184;-83
2023/08/09 06:49:36;;;;;;;2.00;1.30;;;;;;;28.35;38.24;99247.19;5086693;28;20637;-83
2023/08/09 06:52:03;;;;;;;3.60;1.10;;;;;;;28.67;36.95;99237.78;5094271;28;20214;-86
2023/08/09 06:54:29;;;;;;;2.30;0.80;;;;;;;28.85;36.76;99240.84;5090262;28;20191;-86
2023/08/09 06:56:57;;;;;;;2.08;0.80;;;;;;;28.98;35.51;99235.56;5093395;28;20188;-87
2023/08/09 06:59:24;;;;;;;2.78;1.02;;;;;;;28.79;36.82;99233.53;5093369;28;20181;-87
2023/08/09 07:01:51;;;;;;;3.05;0.63;;;;;;;28.86;36.41;99231.72;5094488;28;20180;-89
2023/08/09 07:04:18;;;;;;;2.63;1.10;;;;;;;28.92;37.09;99231.78;5082477;28;20220;-87
2023/08/09 07:06:44;;;;;;;2.25;0.90;;;;;;;28.83;36.43;99232.94;5073975;28;20242;-87
2023/08/09 07:09:12;;;;;;;5.13;0.77;;;;;;;28.98;35.23;99240.97;5074013;28;20629;-84
2023/08/09 07:11:37;;;;;;;1.42;0.75;;;;;;;29.19;35.24;99238.22;5079198;28;20235;-84
2023/08/09 07:14:03;;;;;;;1.55;0.93;;;;;;;29.18;35.62;99237.38;5087437;28;20184;-84
2023/08/09 07:16:29;;;;;;;1.52;0.90;;;;;;;29.35;35.65;99237.13;5093866;28;20260;-84
2023/08/09 07:18:54;;;;;;;1.55;0.70;;;;;;;29.53;35.33;99230.16;5091650;28;20252;-84
2023/08/09 07:21:20;;;;;;;1.90;0.68;;;;;;;29.17;34.95;99232.16;5088228;28;20188;-81
2023/08/09 07:23:46;;;;;;;1.25;0.60;;;;;;;29.54;36.05;99241.78;5073799;28;20201;-81
2023/08/09 07:26:11;;;;;;;1.10;0.50;;;;;;;29.97;33.30;99234.34;5088340;28;20597;-83
2023/08/09 07:28:37;;;;;;;1.13;0.60;;;;;;;30.14;33.39;99224.81;5092903;28;20192;-82
2023/08/09 07:31:02;;;;;;;6.43;0.50;;;;;;;30.12;34.39;99221.50;5091747;28;20556;-81
2023/08/09 07:33:28;;;;;;;1.40;0.70;;;;;;;30.38;32.54;99221.59;5073635;28;20189;-83
2023/08/09 07:35:53;;;;;;;3.25;1.15;;;;;;;30.42;32.40;99214.75;5073482;28;20199;-81
2023/08/09 07:38:19;;;;;;;1.33;0.57;;;;;;;30.52;32.71;99215.19;5073287;28;20185;-81
2023/08/09 07:40:45;;;;;;;3.72;0.40;;;;;;;30.82;32.07;99213.75;5073339;28;20226;-82
2023/08/09 07:43:10;;;;;;;1.08;0.55;;;;;;;30.84;30.59;99218.97;5089610;28;20593;-81
2023/08/09 07:45:36;;;;;;;1.83;0.55;;;;;;;30.82;32.58;99210.19;5073251;28;20197;-81
2023/08/09 07:48:01;;;;;;;1.20;0.60;;;;;;;30.80;33.33;99204.16;5073335;28;20208;-81
2023/08/09 07:50:27;;;;;;;1.02;0.40;;;;;;;31.09;31.56;99201.06;5073122;28;20216;-81
2023/08/09 07:52:54;;;;;;;0.73;0.30;;;;;;;31.31;31.54;99194.38;5072035;28;20211;-81
2023/08/09 07:55:19;;;;;;;1.85;0.60;;;;;;;31.57;30.75;99204.31;5072282;28;20173;-81
2023/08/09 07:57:45;;;;;;;1.77;0.63;;;;;;;31.76;30.24;99195.28;5073199;28;20250;-83
2023/08/09 08:00:12;;;;;;;1.00;0.40;;;;;;;31.87;29.24;99196.47;5072025;28;20177;-82
2023/08/09 08:02:39;;;;;;;1.50;0.52;;;;;;;31.60;30.62;99198.47;5071858;28;20242;-82
2023/08/09 08:05:06;;;;;;;1.38;0.65;;;;;;;31.93;29.92;99198.34;5073214;28;20209;-81
2023/08/09 08:07:32;;;;;;;0.93;0.40;;;;;;;32.01;28.74;99184.56;5073042;28;20192;-83
2023/08/09 08:09:58;;;;;;;1.35;0.55;;;;;;;31.98;29.23;99185.78;5073083;28;20181;-82
2023/08/09 08:12:26;;;;;;;0.95;0.50;;;;;;;32.18;29.63;99183.03;5072073;28;20556;-83
2023/08/09 08:14:52;;;;;;;1.00;0.50;;;;;;;32.22;29.82;99176.94;5070410;28;20242;-81
2023/08/09 08:17:17;;;;;;;0.57;0.32;;;;;;;32.59;29.89;99172.53;5070459;28;20180;-82
2023/08/09 08:19:43;;;;;;;1.25;0.50;;;;;;;32.83;30.49;99176.28;5071858;28;20219;-82
2023/08/09 08:22:09;;;;;;;1.05;0.60;;;;;;;32.72;27.48;99169.69;5091475;28;20629;-82
2023/08/09 08:24:34;;;;;;;0.88;0.40;;;;;;;32.06;29.42;99169.31;5076868;28;20243;-81
2023/08/09 08:27:00;;;;;;;3.58;0.57;;;;;;;32.52;28.72;99173.59;5069768;28;20196;-81
2023/08/09 08:29:25;;;;;;;0.93;0.32;;;;;;;32.45;28.05;99165.50;5072734;28;20176;-81
2023/08/09 08:31:51;;;;;;;2.75;0.50;;;;;;;32.40;28.48;99168.03;5078821;28;20630;-82
2023/08/09 08:34:21;;;;;;;0.93;0.55;;;;;;;31.83;29.04;99155.44;5081671;28;20291;-85
2023/08/09 08:36:54;;;;;;;1.60;0.55;;;;;;;31.92;29.11;99164.97;5091530;28;20176;-84
2023/08/09 08:39:20;;;;;;;0.80;0.40;;;;;;;32.37;29.18;99160.34;5090954;28;20197;-84
2023/08/09 08:41:49;;;;;;;1.13;0.47;;;;;;;32.86;28.39;99162.28;5088896;28;20202;-83
2023/08/09 08:44:14;;;;;;;0.93;0.50;;;;;;;33.04;28.49;99151.47;5091367;28;20200;-83
2023/08/09 08:46:41;;;;;;;1.52;0.57;;;;;;;33.24;27.86;99157.53;5092081;28;20191;-83
2023/08/09 08:49:14;;;;;;;1.90;0.68;;;;;;;33.27;28.16;99151.66;5092535;28;20651;-82
2023/08/09 08:51:42;;;;;;;0.88;0.40;;;;;;;32.92;28.21;99144.22;5092354;28;20259;-82
2023/08/09 08:54:12;;;;;;;5.13;0.50;;;;;;;33.05;27.45;99144.97;5093296;28;20177;-83
2023/08/09 08:56:38;;;;;;;1.10;0.60;;;;;;;33.07;27.78;99140.13;5088054;28;20177;-83
2023/08/09 08:59:04;;;;;;;1.52;0.40;;;;;;;33.13;27.73;99139.25;5089964;28;20539;-82
2023/08/09 09:01:32;;;;;;;1.00;0.40;;;;;;;33.01;27.28;99137.47;5091809;28;20176;-83
2023/08/09 09:03:57;;;;;;;0.98;0.30;;;;;;;33.00;27.23;99125.78;5089913;28;20234;-82
2023/08/09 09:06:23;;;;;;;1.08;0.40;;;;;;;33.06;27.42;99127.63;5071497;28;20637;-83
2023/08/09 09:08:55;;;;;;;1.08;0.38;;;;;;;32.45;28.76;99122.06;5072648;28;20177;-83
2023/08/09 09:11:22;;;;;;;2.65;0.28;;;;;;;32.55;27.39;99116.16;5071545;28;20173;-83
2023/08/09 09:13:50;;;;;;;1.05;0.28;;;;;;;32.48;27.61;99112.66;5080361;28;20192;-84
2023/08/09 09:16:19;;;;;;;0.80;0.30;;;;;;;32.51;27.45;99114.94;5075720;28;20180;-84
2023/08/09 09:18:48;;;;;;;0.63;0.30;;;;;;;32.90;26.83;99105.63;5072211;28;20173;-82
2023/08/09 09:21:16;;;;;;;0.75;0.25;;;;;;;32.97;26.35;99115.34;5072597;28;20220;-83
2023/08/09 09:23:42;;;;;;;0.40;0.17;;;;;;;33.28;26.17;99107.09;5072200;28;20200;-83
2023/08/09 09:26:10;;;;;;;0.73;0.25;;;;;;;33.44;25.47;99111.09;5073435;28;20189;-82
2023/08/09 09:28:42;;;;;;;0.75;0.30;;;;;;;32.81;26.47;99103.19;5090953;28;20188;-83
2023/08/09 09:31:13;;;;;;;0.82;0.35;;;;;;;33.10;25.30;99098.94;5092874;28;20161;-82
2023/08/09 09:33:39;;;;;;;0.85;0.20;;;;;;;33.21;25.96;99090.03;5092667;28;20239;-83
2023/08/09 09:36:10;;;;;;;1.08;0.40;;;;;;;32.34;25.92;99087.50;5091452;28;20253;-83
2023/08/09 09:38:36;;;;;;;1.33;0.40;;;;;;;31.57;28.64;99085.09;5094873;28;20180;-83
2023/08/09 09:41:02;;;;;;;0.90;0.30;;;;;;;32.26;27.39;99081.53;5090235;28;20647;-82
2023/08/09 09:43:36;;;;;;;0.95;0.35;;;;;;;32.12;28.48;99089.78;5095764;28;20188;-84
2023/08/09 09:46:02;;;;;;;2.72;0.50;;;;;;;32.31;26.54;99087.97;5096550;28;20160;-83
2023/08/09 09:48:29;;;;;;;1.67;0.45;;;;;;;31.67;27.01;99084.59;5096018;28;20512;-83
2023/08/09 09:50:56;;;;;;;2.50;0.50;;;;;;;32.21;28.35;99083.03;5095799;28;20188;-83
2023/08/09 09:53:21;;;;;;;0.82;0.30;;;;;;;32.86;27.67;99067.25;5095531;28;20228;-83
2023/08/09 09:55:47;;;;;;;1.55;0.43;;;;;;;32.71;26.20;99055.88;5095031;28;20602;-84
2023/08/09 09:58:13;;;;;;;1.00;0.45;;;;;;;33.27;26.67;99061.13;5094857;28;20176;-83
2023/08/09 10:00:48;;;;;;;1.55;0.45;;;;;;;33.53;26.47;99057.25;5094832;28;20582;-83
2023/08/09 10:03:17;;;;;;;4.38;0.40;;;;;;;33.53;25.34;99049.09;5095804;28;20171;-84
2023/08/09 10:05:47;;;;;;;2.40;0.35;;;;;;;33.45;25.24;99050.25;5095506;28;20200;-84
2023/08/09 10:08:14;;;;;;;0.65;0.30;;;;;;;33.27;25.83;99055.72;5094542;28;20184;-84
2023/08/09 10:10:44;;;;;;;1.10;0.43;;;;;;;33.38;25.36;99053.06;5095569;28;20203;-84
2023/08/09 10:13:17;;;;;;;2.67;0.40;;;;;;;33.42;24.77;99046.09;5094229;28;20183;-82
2023/08/09 10:15:51;;;;;;;0.75;0.25;;;;;;;33.85;24.83;99045.94;5088773;28;20173;-83
2023/08/09 10:18:39;;;;;;;1.00;0.32;;;;;;;34.09;24.57;99044.13;5092572;28;20188;-82
2023/08/09 10:21:06;;;;;;;0.73;0.30;;;;;;;34.28;24.86;99042.97;5095053;28;20279;-82
2023/08/09 10:23:32;;;;;;;0.88;0.30;;;;;;;33.35;25.01;99031.78;5083712;28;20188;-83
2023/08/09 10:25:58;;;;;;;0.95;0.30;;;;;;;33.72;25.54;99027.09;5083097;28;20192;-83
2023/08/09 10:28:40;;;;;;;2.75;0.63;;;;;;;34.02;25.42;99032.47;5094935;28;20176;-83
2023/08/09 10:31:06;;;;;;;1.08;0.28;;;;;;;34.30;25.43;99035.41;5095230;28;20183;-83
2023/08/09 10:33:32;;;;;;;1.58;0.40;;;;;;;34.65;23.69;99024.53;5078308;28;20214;-82
2023/08/09 10:35:57;;;;;;;1.02;0.20;;;;;;;34.19;24.92;99021.78;5074945;28;20683;-83
2023/08/09 10:38:31;;;;;;;0.93;0.20;;;;;;;34.53;24.06;99023.69;5075650;28;20672;-83
2023/08/09 10:40:58;;;;;;;0.40;0.20;;;;;;;34.46;24.36;99018.34;5090205;28;20289;-83
2023/08/09 10:43:26;;;;;;;1.08;0.22;;;;;;;34.67;24.68;99007.97;5079838;28;20193;-82
2023/08/09 10:45:54;;;;;;;0.65;0.22;;;;;;;34.83;22.49;99012.69;5074739;28;20258;-83
2023/08/09 10:48:23;;;;;;;0.38;0.20;;;;;;;34.51;24.09;99010.31;5092516;28;20774;-82
2023/08/09 10:51:22;;;;;;;0.85;0.30;;;;;;;34.76;24.18;98996.47;5088649;28;20682;-82
2023/08/09 10:54:03;;;;;;;0.55;0.28;;;;;;;34.87;23.92;98994.78;5080875;28;20342;-83
2023/08/09 10:56:41;;;;;;;0.63;0.22;;;;;;;35.26;23.34;98994.00;5091821;28;20568;-83
2023/08/09 10:59:27;;;;;;;2.17;0.30;;;;;;;35.03;23.46;98985.88;5083644;28;20665;-82
2023/08/09 11:01:54;;;;;;;0.98;0.30;;;;;;;35.16;23.51;98988.34;5079565;28;20184;-82
2023/08/09 11:04:20;;;;;;;1.23;0.20;;;;;;;35.35;21.47;98989.00;5074258;28;20201;-83
2023/08/09 11:06:49;;;;;;;0.60;0.30;;;;;;;34.59;23.72;98984.66;5074146;28;20607;-83
2023/08/09 11:09:16;;;;;;;1.45;0.30;;;;;;;34.35;23.31;98989.25;5074302;28;20188;-83
2023/08/09 11:11:44;;;;;;;0.47;0.30;;;;;;;34.24;23.98;98989.25;5074316;28;20283;-84
2023/08/09 11:14:11;;;;;;;0.52;0.20;;;;;;;34.26;24.31;98978.94;5074766;28;20609;-82
2023/08/09 11:16:37;;;;;;;0.43;0.13;;;;;;;34.81;22.70;98993.84;5074286;28;20173;-82
2023/08/09 11:19:15;;;;;;;0.63;0.20;;;;;;;34.08;24.08;98981.78;5074430;28;20680;-83
2023/08/09 11:21:43;;;;;;;0.68;0.30;;;;;;;33.42;23.62;98975.44;5084241;28;20195;-82
2023/08/09 11:24:11;;;;;;;0.63;0.20;;;;;;;34.03;23.50;98968.88;5089355;28;20668;-83
2023/08/09 11:26:38;;;;;;;0.45;0.20;;;;;;;34.24;23.41;98970.19;5094179;28;20192;-83
2023/08/09 11:29:06;;;;;;;2.35;0.10;;;;;;;34.76;23.96;98957.50;5094552;28;20177;-83
2023/08/09 11:31:32;;;;;;;0.52;0.10;;;;;;;35.38;23.26;98963.97;5094342;28;20180;-82
2023/08/09 11:33:59;;;;;;;0.43;0.13;;;;;;;35.68;23.32;98959.91;5094136;28;20184;-83